createdAt,value
2023-02-12T00:00:03.811Z,0
2023-02-12T00:01:02.192Z,0
2023-02-12T00:02:02.345Z,0
2023-02-12T00:03:02.133Z,0
2023-02-12T00:04:03.278Z,0
2023-02-12T00:05:02.407Z,0
2023-02-12T00:06:03.492Z,0
2023-02-12T00:07:02.334Z,0
2023-02-12T00:08:02.598Z,0
2023-02-12T00:09:02.322Z,0
2023-02-12T00:10:02.292Z,0
2023-02-12T00:11:02.526Z,0
2023-02-12T00:12:01.744Z,0
2023-02-12T00:13:01.959Z,0
2023-02-12T00:14:02.248Z,0
2023-02-12T00:15:02.201Z,0
2023-02-12T00:16:03.768Z,0
2023-02-12T00:17:01.652Z,0
2023-02-12T00:18:02.144Z,0
2023-02-12T00:19:02.095Z,0
2023-02-12T00:20:02.155Z,0
2023-02-12T00:21:02.374Z,0
2023-02-12T00:22:02.104Z,0
2023-02-12T00:23:01.790Z,0
2023-02-12T00:24:01.799Z,0
2023-02-12T00:25:01.771Z,0
2023-02-12T00:26:02.800Z,0
2023-02-12T00:27:01.445Z,0
2023-02-12T00:28:02.146Z,0
2023-02-12T00:29:01.985Z,0
2023-02-12T00:30:01.944Z,0
2023-02-12T00:31:02.685Z,0
2023-02-12T00:32:02.628Z,0
2023-02-12T00:33:02.133Z,0
2023-02-12T00:34:01.913Z,0
2023-02-12T00:35:02.798Z,0
2023-02-12T00:36:03.619Z,0
2023-02-12T00:37:02.496Z,0
2023-02-12T00:38:03.024Z,0
2023-02-12T00:39:03.087Z,0
2023-02-12T00:40:02.439Z,0
2023-02-12T00:41:02.650Z,0
2023-02-12T00:42:02.930Z,0
2023-02-12T00:43:02.932Z,0
2023-02-12T00:44:02.919Z,0
2023-02-12T00:45:02.614Z,0
2023-02-12T00:46:04.172Z,0
2023-02-12T00:47:02.825Z,0
2023-02-12T00:48:02.534Z,0
2023-02-12T00:49:02.815Z,0
2023-02-12T00:50:02.779Z,0
2023-02-12T00:51:02.472Z,0
2023-02-12T00:52:02.785Z,0
2023-02-12T00:53:02.507Z,0
2023-02-12T00:54:02.768Z,0
2023-02-12T00:55:02.424Z,0
2023-02-12T00:56:03.778Z,0
2023-02-12T00:57:02.656Z,0
2023-02-12T00:58:02.648Z,0
2023-02-12T00:59:02.337Z,0
2023-02-12T01:00:02.142Z,0
2023-02-12T01:01:02.429Z,0
2023-02-12T01:02:02.648Z,0
2023-02-12T01:03:02.013Z,0
2023-02-12T01:04:02.253Z,0
2023-02-12T01:05:02.313Z,0
2023-02-12T01:06:03.770Z,0
2023-02-12T01:07:02.455Z,0
2023-02-12T01:08:02.554Z,0
2023-02-12T01:09:01.916Z,0
2023-02-12T01:10:02.265Z,0
2023-02-12T01:11:01.962Z,0
2023-02-12T01:12:02.346Z,0
2023-02-12T01:13:02.086Z,0
2023-02-12T01:14:01.833Z,0
2023-02-12T01:15:01.812Z,0
2023-02-12T01:16:03.307Z,0
2023-02-12T01:17:01.769Z,0
2023-02-12T01:18:01.752Z,0
2023-02-12T01:19:05.018Z,0
2023-02-12T01:20:02.219Z,0
2023-02-12T01:21:02.245Z,0
2023-02-12T01:22:02.233Z,0
2023-02-12T01:23:01.673Z,0
2023-02-12T01:24:02.259Z,0
2023-02-12T01:25:01.871Z,0
2023-02-12T01:26:03.098Z,0
2023-02-12T01:27:02.099Z,0
2023-02-12T01:28:02.961Z,0
2023-02-12T01:29:01.647Z,0
2023-02-12T01:30:01.775Z,0
2023-02-12T01:31:02.262Z,0
2023-02-12T01:32:02.413Z,0
2023-02-12T01:33:01.992Z,0
2023-02-12T01:34:33.544Z,0
2023-02-12T01:35:01.252Z,0
2023-02-12T01:36:01.892Z,0
2023-02-12T01:37:01.436Z,0
2023-02-12T01:38:04.698Z,0
2023-02-12T01:39:01.746Z,0
2023-02-12T01:40:01.548Z,0
2023-02-12T01:41:01.597Z,0
2023-02-12T01:42:01.957Z,0
2023-02-12T01:43:01.582Z,0
2023-02-12T01:44:01.815Z,0
2023-02-12T01:45:01.009Z,0
2023-02-12T01:46:02.887Z,0
2023-02-12T01:47:02.096Z,0
2023-02-12T01:48:01.288Z,0
2023-02-12T01:49:01.227Z,0
2023-02-12T01:50:01.469Z,0
2023-02-12T01:51:01.180Z,0
2023-02-12T01:52:01.136Z,0
2023-02-12T01:53:01.725Z,0
2023-02-12T01:54:01.385Z,0
2023-02-12T01:55:04.177Z,0
2023-02-12T01:56:02.108Z,0
2023-02-12T01:57:01.102Z,0
2023-02-12T01:58:01.353Z,0
2023-02-12T01:59:01.543Z,0
2023-02-12T02:00:01.261Z,0
2023-02-12T02:01:01.518Z,0
2023-02-12T02:02:01.966Z,0
2023-02-12T02:03:01.572Z,0
2023-02-12T02:04:00.688Z,0
2023-02-12T02:05:01.175Z,0
2023-02-12T02:06:02.514Z,0
2023-02-12T02:07:01.150Z,0
2023-02-12T02:08:01.381Z,0
2023-02-12T02:09:01.099Z,0
2023-02-12T02:10:01.382Z,0
2023-02-12T02:11:01.159Z,0
2023-02-12T02:12:00.771Z,0
2023-02-12T02:13:01.316Z,0
2023-02-12T02:14:01.317Z,0
2023-02-12T02:15:01.007Z,0
2023-02-12T02:16:01.853Z,0
2023-02-12T02:17:00.962Z,0
2023-02-12T02:18:00.701Z,0
2023-02-12T02:19:01.198Z,0
2023-02-12T02:20:00.677Z,0
2023-02-12T02:21:01.143Z,0
2023-02-12T02:22:00.889Z,0
2023-02-12T02:23:01.107Z,0
2023-02-12T02:24:01.121Z,0
2023-02-12T02:25:01.040Z,0
2023-02-12T02:26:01.468Z,0
2023-02-12T02:27:13.030Z,0
2023-02-12T02:28:01.070Z,0
2023-02-12T02:29:01.278Z,0
2023-02-12T02:30:01.023Z,0
2023-02-12T02:31:01.751Z,0
2023-02-12T02:32:01.672Z,0
2023-02-12T02:33:00.939Z,0
2023-02-12T02:34:01.551Z,0
2023-02-12T02:35:01.773Z,0
2023-02-12T02:36:02.289Z,0
2023-02-12T02:37:10.136Z,0
2023-02-12T02:38:01.494Z,0
2023-02-12T02:39:01.996Z,0
2023-02-12T02:40:01.745Z,0
2023-02-12T02:41:01.438Z,0
2023-02-12T02:42:01.911Z,0
2023-02-12T02:43:01.922Z,0
2023-02-12T02:44:01.659Z,0
2023-02-12T02:45:01.896Z,0
2023-02-12T02:46:02.442Z,0
2023-02-12T02:47:02.204Z,0
2023-02-12T02:48:02.015Z,0
2023-02-12T02:49:01.372Z,0
2023-02-12T02:50:01.264Z,0
2023-02-12T02:51:01.263Z,0
2023-02-12T02:52:01.258Z,0
2023-02-12T02:53:01.491Z,0
2023-02-12T02:54:01.490Z,0
2023-02-12T02:55:01.435Z,0
2023-02-12T02:56:02.360Z,0
2023-02-12T02:57:01.117Z,0
2023-02-12T02:58:01.394Z,0
2023-02-12T02:59:01.602Z,0
2023-02-12T03:00:01.079Z,0
2023-02-12T03:01:01.627Z,0
2023-02-12T03:02:01.565Z,0
2023-02-12T03:03:01.543Z,0
2023-02-12T03:04:01.667Z,0
2023-02-12T03:05:00.997Z,0
2023-02-12T03:06:02.471Z,0
2023-02-12T03:07:00.974Z,0
2023-02-12T03:08:00.936Z,0
2023-02-12T03:09:01.194Z,0
2023-02-12T03:10:01.153Z,0
2023-02-12T03:11:01.160Z,0
2023-02-12T03:12:01.133Z,0
2023-02-12T03:13:00.621Z,0
2023-02-12T03:14:00.853Z,0
2023-02-12T03:15:01.081Z,0
2023-02-12T03:16:02.403Z,0
2023-02-12T03:17:01.336Z,0
2023-02-12T03:18:01.063Z,0
2023-02-12T03:19:00.754Z,0
2023-02-12T03:20:01.413Z,0
2023-02-12T03:21:00.740Z,0
2023-02-12T03:22:00.708Z,0
2023-02-12T03:23:00.465Z,0
2023-02-12T03:24:01.191Z,0
2023-02-12T03:25:01.210Z,0
2023-02-12T03:26:01.847Z,0
2023-02-12T03:27:00.606Z,0
2023-02-12T03:28:00.989Z,0
2023-02-12T03:29:01.102Z,0
2023-02-12T03:30:00.813Z,0
2023-02-12T03:31:01.232Z,0
2023-02-12T03:32:00.672Z,0
2023-02-12T03:33:00.527Z,0
2023-02-12T03:50:13.563Z,0
2023-02-12T03:51:12.890Z,0
2023-02-12T03:52:12.590Z,0
2023-02-12T03:53:13.077Z,0
2023-02-12T03:54:13.323Z,0
2023-02-12T03:55:13.301Z,0
2023-02-12T03:56:12.522Z,0
2023-02-12T03:57:13.015Z,0
2023-02-12T03:58:13.289Z,0
2023-02-12T03:59:12.724Z,0
2023-02-12T04:00:13.252Z,0
2023-02-12T04:01:13.744Z,0
2023-02-12T04:02:13.198Z,0
2023-02-12T04:03:12.912Z,0
2023-02-12T04:04:13.394Z,0
2023-02-12T04:05:12.866Z,0
2023-02-12T04:06:13.239Z,0
2023-02-12T04:07:12.808Z,0
2023-02-12T04:08:12.281Z,0
2023-02-12T04:09:12.827Z,0
2023-02-12T04:10:12.764Z,0
2023-02-12T04:11:12.730Z,0
2023-02-12T04:12:12.493Z,0
2023-02-12T04:13:12.954Z,0
2023-02-12T04:14:13.206Z,0
2023-02-12T04:15:12.764Z,0
2023-02-12T04:16:13.092Z,0
2023-02-12T04:17:13.335Z,0
2023-02-12T04:18:12.946Z,0
2023-02-12T04:19:12.351Z,0
2023-02-12T04:20:12.359Z,0
2023-02-12T04:21:12.580Z,0
2023-02-12T04:22:12.946Z,0
2023-02-12T04:23:12.786Z,0
2023-02-12T04:24:12.522Z,0
2023-02-12T04:25:12.773Z,0
2023-02-12T04:26:12.700Z,0
2023-02-12T04:27:11.937Z,0
2023-02-12T04:28:12.857Z,0
2023-02-12T04:29:12.676Z,0
2023-02-12T04:30:12.161Z,0
2023-02-12T04:31:12.878Z,0
2023-02-12T04:32:12.117Z,0
2023-02-12T04:33:12.376Z,0
2023-02-12T04:34:12.112Z,0
2023-02-12T04:35:12.562Z,0
2023-02-12T04:36:12.047Z,0
2023-02-12T04:37:12.068Z,0
2023-02-12T04:38:12.880Z,0
2023-02-12T04:39:12.550Z,0
2023-02-12T04:40:12.454Z,0
2023-02-12T04:41:12.425Z,0
2023-02-12T04:42:12.711Z,0
2023-02-12T04:43:12.117Z,0
2023-02-12T04:44:12.610Z,0
2023-02-12T04:45:11.834Z,0
2023-02-12T04:46:12.357Z,0
2023-02-12T04:47:12.554Z,0
2023-02-12T04:48:12.265Z,0
2023-02-12T04:49:12.254Z,0
2023-02-12T04:50:12.526Z,0
2023-02-12T04:51:11.990Z,0
2023-02-12T04:52:12.468Z,0
2023-02-12T04:53:12.195Z,0
2023-02-12T04:54:13.535Z,0
2023-02-12T04:55:13.130Z,0
2023-02-12T04:56:13.182Z,0
2023-02-12T04:57:13.429Z,0
2023-02-12T04:58:13.371Z,0
2023-02-12T04:59:13.378Z,0
2023-02-12T05:00:13.085Z,0
2023-02-12T05:01:13.821Z,0
2023-02-12T05:02:13.583Z,0
2023-02-12T05:03:12.788Z,0
2023-02-12T05:04:13.318Z,0
2023-02-12T05:05:13.485Z,0
2023-02-12T05:06:13.004Z,0
2023-02-12T05:07:13.472Z,0
2023-02-12T05:08:13.454Z,0
2023-02-12T05:09:13.206Z,0
2023-02-12T05:10:13.579Z,0
2023-02-12T05:11:13.435Z,0
2023-02-12T05:12:12.910Z,0
2023-02-12T05:13:12.872Z,0
2023-02-12T05:14:14.050Z,0
2023-02-12T05:15:13.500Z,0
2023-02-12T05:16:14.308Z,0
2023-02-12T05:17:13.710Z,0
2023-02-12T05:18:13.708Z,0
2023-02-12T05:19:14.094Z,0
2023-02-12T05:20:13.180Z,0
2023-02-12T05:21:13.405Z,0
2023-02-12T05:22:13.389Z,0
2023-02-12T05:23:13.105Z,0
2023-02-12T05:24:13.840Z,0
2023-02-12T05:25:13.564Z,0
2023-02-12T05:26:14.046Z,0
2023-02-12T05:27:13.279Z,0
2023-02-12T05:28:14.075Z,0
2023-02-12T05:29:13.519Z,0
2023-02-12T05:30:13.742Z,0
2023-02-12T05:31:14.424Z,0
2023-02-12T05:32:14.446Z,0
2023-02-12T05:33:13.701Z,0
2023-02-12T05:34:13.173Z,0
2023-02-12T05:35:13.854Z,0
2023-02-12T05:36:13.387Z,0
2023-02-12T05:37:13.431Z,0
2023-02-12T05:38:13.356Z,0
2023-02-12T05:39:13.353Z,0
2023-02-12T05:40:12.811Z,0
2023-02-12T05:41:13.534Z,0
2023-02-12T05:42:13.706Z,0
2023-02-12T05:43:13.509Z,0
2023-02-12T05:44:13.241Z,0
2023-02-12T05:45:13.023Z,0
2023-02-12T05:46:13.336Z,0
2023-02-12T05:47:12.727Z,0
2023-02-12T05:48:12.950Z,0
2023-02-12T05:49:13.653Z,0
2023-02-12T05:50:13.940Z,0
2023-02-12T05:51:13.891Z,0
2023-02-12T05:52:13.594Z,0
2023-02-12T05:53:13.058Z,0
2023-02-12T05:54:13.558Z,0
2023-02-12T05:55:13.036Z,0
2023-02-12T05:56:13.790Z,0
2023-02-12T05:57:13.503Z,0
2023-02-12T05:58:15.969Z,0
2023-02-12T05:59:13.224Z,0
2023-02-12T06:00:13.460Z,0
2023-02-12T06:01:13.704Z,0
2023-02-12T06:02:13.874Z,0
2023-02-12T06:03:13.414Z,0
2023-02-12T06:04:13.796Z,0
2023-02-12T06:05:13.630Z,0
2023-02-12T06:06:13.360Z,0
2023-02-12T06:07:12.834Z,0
2023-02-12T06:08:13.037Z,0
2023-02-12T06:09:13.033Z,0
2023-02-12T06:10:13.024Z,0
2023-02-12T06:11:13.265Z,0
2023-02-12T06:12:13.228Z,0
2023-02-12T06:13:13.226Z,0
2023-02-12T06:14:13.595Z,0
2023-02-12T06:15:13.329Z,0
2023-02-12T06:16:13.670Z,0
2023-02-12T06:17:13.169Z,0
2023-02-12T06:18:13.168Z,0
2023-02-12T06:19:13.383Z,0
2023-02-12T06:20:13.149Z,0
2023-02-12T06:21:13.343Z,0
2023-02-12T06:22:13.089Z,0
2023-02-12T06:23:13.307Z,0
2023-02-12T06:24:13.068Z,0
2023-02-12T06:25:12.758Z,0
2023-02-12T06:26:13.255Z,0
2023-02-12T06:27:12.794Z,0
2023-02-12T06:28:13.498Z,0
2023-02-12T06:29:12.679Z,0
2023-02-12T06:30:13.343Z,5
2023-02-12T06:31:13.626Z,5
2023-02-12T06:32:13.875Z,5
2023-02-12T06:33:12.884Z,5
2023-02-12T06:34:12.626Z,5
2023-02-12T06:35:13.094Z,5
2023-02-12T06:36:12.852Z,5
2023-02-12T06:37:12.841Z,5
2023-02-12T06:38:13.044Z,5
2023-02-12T06:39:13.052Z,5
2023-02-12T06:40:12.761Z,10
2023-02-12T06:41:13.031Z,10
2023-02-12T06:42:12.774Z,10
2023-02-12T06:43:12.983Z,10
2023-02-12T06:44:12.971Z,10
2023-02-12T06:45:12.687Z,10
2023-02-12T06:46:13.258Z,10
2023-02-12T06:47:12.655Z,10
2023-02-12T06:48:12.899Z,10
2023-02-12T06:49:12.603Z,10
2023-02-12T06:50:12.330Z,15
2023-02-12T06:51:12.719Z,15
2023-02-12T06:52:13.028Z,15
2023-02-12T06:53:12.779Z,15
2023-02-12T06:54:12.032Z,15
2023-02-12T06:55:12.488Z,15
2023-02-12T06:56:12.521Z,15
2023-02-12T06:57:11.954Z,20
2023-02-12T06:58:12.444Z,15
2023-02-12T06:59:11.923Z,20
2023-02-12T07:00:12.682Z,20
2023-02-12T07:01:12.300Z,15
2023-02-12T07:02:12.807Z,15
2023-02-12T07:03:12.633Z,15
2023-02-12T07:04:13.250Z,15
2023-02-12T07:05:12.327Z,15
2023-02-12T07:06:12.585Z,15
2023-02-12T07:07:12.562Z,15
2023-02-12T07:08:12.309Z,15
2023-02-12T07:09:12.568Z,20
2023-02-12T07:10:12.503Z,20
2023-02-12T07:11:12.263Z,25
2023-02-12T07:12:11.975Z,25
2023-02-12T07:13:12.483Z,20
2023-02-12T07:14:12.439Z,25
2023-02-12T07:15:12.219Z,25
2023-02-12T07:16:12.534Z,25
2023-02-12T07:17:12.403Z,25
2023-02-12T07:18:12.538Z,30
2023-02-12T07:19:11.836Z,25
2023-02-12T07:20:12.370Z,25
2023-02-12T07:21:12.050Z,25
2023-02-12T07:22:12.024Z,25
2023-02-12T07:23:12.425Z,25
2023-02-12T07:24:12.003Z,25
2023-02-12T07:25:12.032Z,25
2023-02-12T07:26:11.736Z,25
2023-02-12T07:27:11.458Z,25
2023-02-12T07:28:12.446Z,25
2023-02-12T07:29:11.909Z,25
2023-02-12T07:30:11.920Z,25
2023-02-12T07:31:12.531Z,25
2023-02-12T07:32:12.353Z,25
2023-02-12T07:33:12.125Z,25
2023-02-12T07:34:12.221Z,25
2023-02-12T07:35:11.844Z,25
2023-02-12T07:36:11.808Z,25
2023-02-12T07:37:11.564Z,25
2023-02-12T07:38:11.518Z,25
2023-02-12T07:39:11.753Z,25
2023-02-12T07:40:12.017Z,25
2023-02-12T07:41:14.821Z,30
2023-02-12T07:42:11.728Z,30
2023-02-12T07:43:11.681Z,30
2023-02-12T07:44:11.670Z,30
2023-02-12T07:45:11.397Z,30
2023-02-12T07:46:11.820Z,30
2023-02-12T07:47:11.636Z,30
2023-02-12T07:48:11.412Z,30
2023-02-12T07:49:11.142Z,35
2023-02-12T07:50:11.971Z,35
2023-02-12T07:51:11.463Z,35
2023-02-12T07:52:14.327Z,40
2023-02-12T07:53:11.790Z,40
2023-02-12T07:54:11.833Z,40
2023-02-12T07:55:11.768Z,40
2023-02-12T07:56:11.470Z,40
2023-02-12T07:57:11.713Z,40
2023-02-12T07:58:11.204Z,40
2023-02-12T07:59:11.680Z,40
2023-02-12T08:00:11.696Z,40
2023-02-12T08:01:11.374Z,40
2023-02-12T08:02:11.935Z,40
2023-02-12T08:03:11.639Z,45
2023-02-12T08:04:12.119Z,45
2023-02-12T08:05:11.332Z,45
2023-02-12T08:06:11.710Z,45
2023-02-12T08:07:11.307Z,45
2023-02-12T08:08:11.527Z,45
2023-02-12T08:09:10.985Z,45
2023-02-12T08:10:11.520Z,40
2023-02-12T08:11:11.479Z,45
2023-02-12T08:12:11.267Z,45
2023-02-12T08:13:10.829Z,40
2023-02-12T08:14:11.201Z,40
2023-02-12T08:15:11.216Z,40
2023-02-12T08:16:11.101Z,35
2023-02-12T08:17:10.888Z,35
2023-02-12T08:18:11.368Z,35
2023-02-12T08:19:31.656Z,40
2023-02-12T08:20:11.323Z,40
2023-02-12T08:21:11.335Z,45
2023-02-12T08:22:11.454Z,50
2023-02-12T08:23:11.018Z,50
2023-02-12T08:24:11.015Z,50
2023-02-12T08:25:10.760Z,50
2023-02-12T08:26:10.978Z,55
2023-02-12T08:27:11.380Z,55
2023-02-12T08:28:11.172Z,55
2023-02-12T08:29:11.173Z,50
2023-02-12T08:30:11.712Z,50
2023-02-12T08:31:11.385Z,45
2023-02-12T08:32:11.329Z,45
2023-02-12T08:33:10.581Z,45
2023-02-12T08:34:11.112Z,45
2023-02-12T08:35:11.077Z,45
2023-02-12T08:36:11.424Z,50
2023-02-12T08:37:11.080Z,50
2023-02-12T08:38:11.415Z,55
2023-02-12T08:39:11.017Z,55
2023-02-12T08:40:11.026Z,55
2023-02-12T08:41:11.339Z,55
2023-02-12T08:42:11.229Z,55
2023-02-12T08:43:12.176Z,50
2023-02-12T08:44:12.184Z,50
2023-02-12T08:45:11.677Z,55
2023-02-12T08:46:12.245Z,55
2023-02-12T08:47:11.862Z,60
2023-02-12T08:48:11.576Z,60
2023-02-12T08:49:12.124Z,55
2023-02-12T08:50:11.806Z,55
2023-02-12T08:51:12.049Z,55
2023-02-12T08:52:11.790Z,55
2023-02-12T08:53:12.026Z,55
2023-02-12T08:54:12.133Z,55
2023-02-12T08:55:11.449Z,50
2023-02-12T08:56:11.694Z,50
2023-02-12T08:57:11.694Z,50
2023-02-12T08:58:11.926Z,50
2023-02-12T08:59:11.665Z,50
2023-02-12T09:00:11.688Z,55
2023-02-12T09:01:12.217Z,60
2023-02-12T09:02:11.647Z,55
2023-02-12T09:03:11.591Z,55
2023-02-12T09:04:11.848Z,55
2023-02-12T09:05:11.822Z,55
2023-02-12T09:06:11.783Z,55
2023-02-12T09:07:14.920Z,60
2023-02-12T09:08:10.981Z,60
2023-02-12T09:09:11.486Z,65
2023-02-12T09:10:11.892Z,65
2023-02-12T09:11:11.471Z,70
2023-02-12T09:12:11.444Z,70
2023-02-12T09:13:11.413Z,70
2023-02-12T09:14:11.404Z,70
2023-02-12T09:15:11.668Z,70
2023-02-12T09:16:11.676Z,75
2023-02-12T09:17:11.879Z,75
2023-02-12T09:18:11.682Z,75
2023-02-12T09:19:11.593Z,70
2023-02-12T09:20:11.543Z,70
2023-02-12T09:21:11.316Z,70
2023-02-12T09:22:11.016Z,70
2023-02-12T09:23:11.251Z,70
2023-02-12T09:24:11.276Z,70
2023-02-12T09:25:10.981Z,75
2023-02-12T09:26:11.596Z,75
2023-02-12T09:27:10.977Z,75
2023-02-12T09:28:11.669Z,75
2023-02-12T09:29:11.164Z,75
2023-02-12T09:30:11.415Z,80
2023-02-12T09:31:11.956Z,80
2023-02-12T09:32:11.503Z,85
2023-02-12T09:33:10.661Z,95
2023-02-12T09:34:10.794Z,95
2023-02-12T09:35:11.311Z,95
2023-02-12T09:36:10.806Z,100
2023-02-12T09:37:10.783Z,105
2023-02-12T09:38:10.755Z,105
2023-02-12T09:39:10.757Z,105
2023-02-12T09:40:11.222Z,100
2023-02-12T09:41:10.691Z,95
2023-02-12T09:42:11.449Z,100
2023-02-12T09:43:10.426Z,115
2023-02-12T09:44:11.147Z,120
2023-02-12T09:45:11.163Z,115
2023-02-12T09:46:11.345Z,110
2023-02-12T09:47:10.671Z,105
2023-02-12T09:48:10.860Z,100
2023-02-12T09:49:10.866Z,105
2023-02-12T09:50:11.090Z,105
2023-02-12T09:51:10.573Z,100
2023-02-12T09:52:11.059Z,90
2023-02-12T09:53:10.826Z,90
2023-02-12T09:54:10.752Z,95
2023-02-12T09:55:11.035Z,105
2023-02-12T09:56:10.717Z,120
2023-02-12T09:57:10.752Z,130
2023-02-12T09:58:11.072Z,125
2023-02-12T09:59:10.930Z,125
2023-02-12T10:00:10.435Z,120
2023-02-12T10:01:10.922Z,115
2023-02-12T10:02:10.619Z,115
2023-02-12T10:03:14.290Z,115
2023-02-12T10:04:11.223Z,115
2023-02-12T10:05:12.335Z,110
2023-02-12T10:06:10.559Z,115
2023-02-12T10:07:10.558Z,110
2023-02-12T10:08:10.598Z,105
2023-02-12T10:09:10.489Z,105
2023-02-12T10:10:14.087Z,120
2023-02-12T10:11:10.765Z,140
2023-02-12T10:12:10.481Z,170
2023-02-12T10:13:10.460Z,165
2023-02-12T10:14:10.891Z,150
2023-02-12T10:15:10.171Z,130
2023-02-12T10:16:10.937Z,120
2023-02-12T10:17:10.643Z,115
2023-02-12T10:18:09.842Z,110
2023-02-12T10:19:10.817Z,105
2023-02-12T10:20:10.494Z,105
2023-02-12T10:21:10.295Z,105
2023-02-12T10:22:10.649Z,105
2023-02-12T10:23:10.251Z,105
2023-02-12T10:24:10.544Z,105
2023-02-12T10:25:10.634Z,110
2023-02-12T10:26:10.916Z,105
2023-02-12T10:27:10.754Z,105
2023-02-12T10:28:10.644Z,105
2023-02-12T10:29:10.172Z,105
2023-02-12T10:30:10.793Z,105
2023-02-12T10:31:11.359Z,105
2023-02-12T10:32:10.121Z,100
2023-02-12T10:33:10.333Z,95
2023-02-12T10:34:10.561Z,90
2023-02-12T10:35:10.307Z,90
2023-02-12T10:36:10.029Z,85
2023-02-12T10:37:10.279Z,80
2023-02-12T10:38:10.527Z,75
2023-02-12T10:39:10.490Z,75
2023-02-12T10:40:09.994Z,75
2023-02-12T10:41:10.307Z,75
2023-02-12T10:42:10.348Z,75
2023-02-12T10:43:12.637Z,90
2023-02-12T10:44:10.690Z,100
2023-02-12T10:45:10.142Z,110
2023-02-12T10:46:10.809Z,120
2023-02-12T10:47:10.371Z,125
2023-02-12T10:48:10.097Z,115
2023-02-12T10:49:10.335Z,105
2023-02-12T10:50:10.126Z,105
2023-02-12T10:51:09.778Z,110
2023-02-12T10:52:10.064Z,105
2023-02-12T10:53:10.137Z,100
2023-02-12T10:54:12.074Z,90
2023-02-12T10:55:09.709Z,85
2023-02-12T10:56:09.952Z,80
2023-02-12T10:57:09.973Z,80
2023-02-12T10:58:09.766Z,85
2023-02-12T10:59:10.223Z,85
2023-02-12T11:00:09.878Z,90
2023-02-12T11:01:09.375Z,95
2023-02-12T11:02:10.455Z,95
2023-02-12T11:03:09.859Z,95
2023-02-12T11:04:09.332Z,105
2023-02-12T11:05:10.135Z,110
2023-02-12T11:06:10.086Z,120
2023-02-12T11:07:10.042Z,115
2023-02-12T11:08:09.763Z,120
2023-02-12T11:09:09.534Z,130
2023-02-12T11:10:09.468Z,140
2023-02-12T11:11:09.464Z,145
2023-02-12T11:12:09.446Z,160
2023-02-12T11:13:09.703Z,165
2023-02-12T11:14:09.436Z,170
2023-02-12T11:15:09.674Z,175
2023-02-12T11:16:11.001Z,180
2023-02-12T11:17:09.606Z,170
2023-02-12T11:18:12.456Z,155
2023-02-12T11:19:09.412Z,135
2023-02-12T11:20:09.310Z,125
2023-02-12T11:21:09.042Z,120
2023-02-12T11:22:09.552Z,120
2023-02-12T11:23:09.535Z,120
2023-02-12T11:24:11.311Z,130
2023-02-12T11:25:09.275Z,135
2023-02-12T11:26:09.005Z,150
2023-02-12T11:27:09.483Z,160
2023-02-12T11:28:10.258Z,165
2023-02-12T11:29:10.402Z,170
2023-02-12T11:30:09.692Z,165
2023-02-12T11:31:10.165Z,165
2023-02-12T11:32:09.990Z,160
2023-02-12T11:33:09.616Z,160
2023-02-12T11:34:09.753Z,160
2023-02-12T11:35:09.640Z,160
2023-02-12T11:36:13.797Z,160
2023-02-12T11:37:08.519Z,160
2023-02-12T11:38:09.010Z,145
2023-02-12T11:39:09.323Z,135
2023-02-12T11:40:09.270Z,135
2023-02-12T11:41:09.658Z,145
2023-02-12T11:42:09.308Z,165
2023-02-12T11:43:09.468Z,180
2023-02-12T11:44:09.205Z,195
2023-02-12T11:45:09.317Z,195
2023-02-12T11:46:10.248Z,190
2023-02-12T11:47:09.225Z,175
2023-02-12T11:48:08.697Z,175
2023-02-12T11:49:09.117Z,175
2023-02-12T11:50:09.525Z,180
2023-02-12T11:51:09.379Z,180
2023-02-12T11:52:09.154Z,175
2023-02-12T11:53:09.420Z,165
2023-02-12T11:54:09.330Z,165
2023-02-12T11:55:09.105Z,165
2023-02-12T11:56:10.531Z,160
2023-02-12T11:57:08.763Z,150
2023-02-12T11:58:09.010Z,145
2023-02-12T11:59:08.447Z,145
2023-02-12T12:00:08.941Z,145
2023-02-12T12:01:08.679Z,150
2023-02-12T12:02:09.180Z,160
2023-02-12T12:03:09.381Z,175
2023-02-12T12:04:09.193Z,170
2023-02-12T12:05:08.898Z,170
2023-02-12T12:06:09.306Z,165
2023-02-12T12:07:09.137Z,155
2023-02-12T12:08:08.820Z,155
2023-02-12T12:09:09.071Z,170
2023-02-12T12:10:08.626Z,185
2023-02-12T12:11:09.091Z,185
2023-02-12T12:12:09.038Z,185
2023-02-12T12:13:09.031Z,190
2023-02-12T12:14:08.497Z,195
2023-02-12T12:15:08.486Z,195
2023-02-12T12:16:08.638Z,215
2023-02-12T12:17:08.725Z,230
2023-02-12T12:18:08.459Z,225
2023-02-12T12:19:09.147Z,195
2023-02-12T12:20:09.037Z,185
2023-02-12T12:21:08.379Z,170
2023-02-12T12:22:09.204Z,165
2023-02-12T12:23:08.630Z,165
2023-02-12T12:24:08.400Z,180
2023-02-12T12:25:10.981Z,180
2023-02-12T12:26:08.848Z,165
2023-02-12T12:27:08.537Z,160
2023-02-12T12:28:09.003Z,155
2023-02-12T12:29:08.366Z,160
2023-02-12T12:30:10.375Z,170
2023-02-12T12:31:09.083Z,170
2023-02-12T12:32:08.869Z,165
2023-02-12T12:33:08.196Z,155
2023-02-12T12:34:08.450Z,140
2023-02-12T12:35:08.217Z,130
2023-02-12T12:36:08.928Z,130
2023-02-12T12:37:08.722Z,120
2023-02-12T12:38:08.817Z,115
2023-02-12T12:39:08.389Z,115
2023-02-12T12:40:08.419Z,110
2023-02-12T12:41:08.359Z,115
2023-02-12T12:42:08.333Z,130
2023-02-12T12:43:07.852Z,125
2023-02-12T12:44:08.058Z,125
2023-02-12T12:45:08.305Z,120
2023-02-12T12:46:10.816Z,115
2023-02-12T12:47:08.028Z,115
2023-02-12T12:48:08.021Z,115
2023-02-12T12:49:08.335Z,115
2023-02-12T12:50:08.462Z,115
2023-02-12T12:51:07.941Z,115
2023-02-12T12:52:08.764Z,120
2023-02-12T12:53:07.930Z,120
2023-02-12T12:54:08.530Z,125
2023-02-12T12:55:08.150Z,125
2023-02-12T12:56:08.783Z,130
2023-02-12T12:57:07.589Z,130
2023-02-12T12:58:08.103Z,130
2023-02-12T12:59:08.077Z,130
2023-02-12T13:00:08.056Z,130
2023-02-12T13:01:08.616Z,135
2023-02-12T13:02:08.529Z,135
2023-02-12T13:03:07.503Z,135
2023-02-12T13:04:07.832Z,130
2023-02-12T13:05:07.697Z,140
2023-02-12T13:06:08.610Z,140
2023-02-12T13:07:07.992Z,135
2023-02-12T13:08:07.416Z,135
2023-02-12T13:09:08.218Z,140
2023-02-12T13:10:08.322Z,140
2023-02-12T13:11:08.176Z,130
2023-02-12T13:12:07.376Z,125
2023-02-12T13:13:08.149Z,110
2023-02-12T13:14:08.353Z,100
2023-02-12T13:15:08.074Z,100
2023-02-12T13:16:08.180Z,105
2023-02-12T13:17:10.649Z,115
2023-02-12T13:18:06.993Z,125
2023-02-12T13:19:07.839Z,125
2023-02-12T13:20:07.768Z,120
2023-02-12T13:21:07.978Z,115
2023-02-12T13:22:08.065Z,115
2023-02-12T13:23:08.008Z,120
2023-02-12T13:24:07.989Z,110
2023-02-12T13:25:07.523Z,100
2023-02-12T13:26:08.290Z,105
2023-02-12T13:27:07.139Z,115
2023-02-12T13:28:07.761Z,125
2023-02-12T13:29:07.357Z,125
2023-02-12T13:30:07.966Z,130
2023-02-12T13:31:33.937Z,110
2023-02-12T13:32:08.689Z,100
2023-02-12T13:33:07.648Z,90
2023-02-12T13:34:07.900Z,95
2023-02-12T13:35:07.590Z,95
2023-02-12T13:36:08.474Z,80
2023-02-12T13:37:07.810Z,75
2023-02-12T13:38:08.080Z,70
2023-02-12T13:39:07.544Z,75
2023-02-12T13:40:07.533Z,90
2023-02-12T13:41:07.812Z,100
2023-02-12T13:42:08.195Z,105
2023-02-12T13:43:07.239Z,100
2023-02-12T13:44:07.504Z,100
2023-02-12T13:45:07.765Z,100
2023-02-12T13:46:08.545Z,105
2023-02-12T13:47:07.744Z,100
2023-02-12T13:48:07.904Z,95
2023-02-12T13:49:07.938Z,85
2023-02-12T13:50:07.394Z,80
2023-02-12T13:51:10.863Z,80
2023-02-12T13:52:07.572Z,80
2023-02-12T13:53:07.430Z,80
2023-02-12T13:54:07.323Z,80
2023-02-12T13:55:07.296Z,80
2023-02-12T13:56:08.103Z,80
2023-02-12T13:57:07.768Z,75
2023-02-12T13:58:07.907Z,75
2023-02-12T13:59:07.478Z,70
2023-02-12T14:00:06.978Z,70
2023-02-12T14:01:07.461Z,70
2023-02-12T14:02:07.879Z,75
2023-02-12T14:03:07.410Z,80
2023-02-12T14:04:07.139Z,85
2023-02-12T14:05:07.159Z,85
2023-02-12T14:06:07.583Z,80
2023-02-12T14:07:10.074Z,70
2023-02-12T14:08:07.628Z,70
2023-02-12T14:09:07.651Z,65
2023-02-12T14:10:07.313Z,60
2023-02-12T14:11:07.289Z,55
2023-02-12T14:12:07.355Z,55
2023-02-12T14:13:07.525Z,55
2023-02-12T14:14:07.632Z,50
2023-02-12T14:15:07.279Z,50
2023-02-12T14:16:08.075Z,45
2023-02-12T14:17:07.465Z,45
2023-02-12T14:18:06.951Z,50
2023-02-12T14:19:07.175Z,55
2023-02-12T14:20:06.636Z,55
2023-02-12T14:21:07.131Z,55
2023-02-12T14:22:07.467Z,55
2023-02-12T14:23:07.399Z,60
2023-02-12T14:24:07.088Z,65
2023-02-12T14:25:07.174Z,65
2023-02-12T14:26:07.691Z,65
2023-02-12T14:27:07.081Z,60
2023-02-12T14:28:07.376Z,55
2023-02-12T14:29:07.086Z,55
2023-02-12T14:30:07.437Z,50
2023-02-12T14:31:07.066Z,55
2023-02-12T14:32:07.653Z,55
2023-02-12T14:33:07.025Z,55
2023-02-12T14:34:07.397Z,55
2023-02-12T14:35:06.683Z,55
2023-02-12T14:36:07.167Z,55
2023-02-12T14:37:06.637Z,55